Time;durP1;ratioP1;P1;durP2;ratioP2;P2;SDS_P1;SDS_P2;PMS_P1;PMS_P2;Temp;Humidity;BMP_temperature;BMP_pressure;BME280_temperature;BME280_humidity;BME280_pressure;Samples;Min_cycle;Max_cycle;Signal;HPM_P1;HPM_P2
2023/11/02 00:02:22;;;;;;;11.02;10.23;;;9.20;99.90;;;;;;5032601;28;20041;-77
2023/11/02 00:04:49;;;;;;;;;;;9.20;99.90;;;;;;5037589;28;20071;-76
2023/11/02 00:07:17;;;;;;;10.70;10.00;;;9.20;99.90;;;;;;5034639;28;19951;-76
2023/11/02 00:09:44;;;;;;;10.90;9.90;;;9.30;99.90;;;;;;5017941;28;20144;-77
2023/11/02 00:12:16;;;;;;;11.38;10.68;;;9.40;99.90;;;;;;5035142;28;20048;-76
2023/11/02 00:14:53;;;;;;;10.77;10.25;;;9.40;99.90;;;;;;5017912;28;20049;-76
2023/11/02 00:17:35;;;;;;;10.82;10.10;;;9.40;99.90;;;;;;5019304;28;20123;-76
2023/11/02 00:20:10;;;;;;;11.50;10.73;;;9.40;99.90;;;;;;5031800;28;20388;-77
2023/11/02 00:22:43;;;;;;;11.95;11.15;;;9.40;99.90;;;;;;5031611;28;20065;-76
2023/11/02 00:25:19;;;;;;;11.88;11.07;;;9.50;99.90;;;;;;5035324;28;20045;-77
2023/11/02 00:27:45;;;;;;;12.50;11.40;;;9.40;99.90;;;;;;5016426;28;20045;-76
2023/11/02 00:30:14;;;;;;;12.50;11.32;;;9.40;99.90;;;;;;5034689;28;20045;-76
2023/11/02 00:32:41;;;;;;;11.40;10.80;;;9.40;99.90;;;;;;5029870;28;20041;-77
2023/11/02 00:35:08;;;;;;;12.25;11.38;;;9.40;99.90;;;;;;5019300;28;20626;-76
2023/11/02 00:37:38;;;;;;;12.32;11.10;;;9.40;99.90;;;;;;5033467;28;20098;-75
2023/11/02 00:40:06;;;;;;;13.30;11.73;;;9.30;99.90;;;;;;5035218;28;20587;-76
2023/11/02 00:42:33;;;;;;;11.85;11.18;;;9.30;99.90;;;;;;5022427;28;20040;-77
2023/11/02 00:45:00;;;;;;;11.98;10.98;;;9.30;99.90;;;;;;5048496;28;20053;-76
2023/11/02 00:47:26;;;;;;;11.05;10.32;;;9.30;99.90;;;;;;5032133;28;20048;-77
2023/11/02 00:49:57;;;;;;;11.23;10.32;;;9.20;99.90;;;;;;5034181;28;20099;-76
2023/11/02 00:52:26;;;;;;;10.77;10.07;;;9.20;99.90;;;;;;5020137;28;20443;-76
2023/11/02 00:54:55;;;;;;;11.52;10.63;;;9.30;99.90;;;;;;5032625;28;20697;-76
2023/11/02 00:57:36;;;;;;;10.85;10.25;;;9.30;99.90;;;;;;5020498;28;20614;-76
2023/11/02 01:00:04;;;;;;;10.18;9.50;;;9.30;99.90;;;;;;5035827;28;20049;-76
2023/11/02 01:02:35;;;;;;;10.88;9.90;;;9.40;99.90;;;;;;5034919;28;20049;-75
2023/11/02 01:05:04;;;;;;;10.70;9.88;;;9.40;99.90;;;;;;5017957;28;20103;-77
2023/11/02 01:07:33;;;;;;;10.85;9.95;;;9.40;99.90;;;;;;5033165;28;20050;-76
2023/11/02 01:10:04;;;;;;;11.55;10.52;;;9.40;99.90;;;;;;5036589;28;20037;-76
2023/11/02 01:12:35;;;;;;;11.10;10.07;;;9.40;99.90;;;;;;5032355;28;20052;-76
2023/11/02 01:15:11;;;;;;;9.98;9.40;;;9.30;99.90;;;;;;5020359;28;20591;-76
2023/11/02 01:17:39;;;;;;;10.55;9.63;;;9.30;99.90;;;;;;5055332;28;20033;-75
2023/11/02 01:20:33;;;;;;;9.63;9.13;;;9.30;99.90;;;;;;5063894;28;20057;-76
2023/11/02 01:23:06;;;;;;;9.40;8.70;;;9.30;99.90;;;;;;5049242;28;20037;-76
2023/11/02 01:25:41;;;;;;;10.00;9.18;;;9.30;99.90;;;;;;5034434;28;20037;-77
2023/11/02 01:28:13;;;;;;;9.80;9.10;;;9.30;99.90;;;;;;5034102;28;20041;-77
2023/11/02 01:30:41;;;;;;;10.38;9.35;;;9.40;99.90;;;;;;5031113;28;20419;-77
2023/11/02 01:33:38;;;;;;;10.20;9.30;;;9.30;99.90;;;;;;5017282;28;20051;-76
2023/11/02 01:36:06;;;;;;;9.70;9.20;;;9.30;99.90;;;;;;5019454;28;20068;-75
2023/11/02 01:38:35;;;;;;;10.23;9.48;;;9.20;99.90;;;;;;5029829;28;20045;-77
2023/11/02 01:41:10;;;;;;;10.30;8.98;;;9.20;99.90;;;;;;5033611;28;20692;-76
2023/11/02 01:43:49;;;;;;;10.40;9.50;;;9.30;99.90;;;;;;5030907;28;20072;-76
2023/11/02 01:46:22;;;;;;;10.32;9.48;;;9.30;99.90;;;;;;5016967;28;20539;-77
2023/11/02 01:49:20;;;;;;;10.07;9.38;;;9.30;99.90;;;;;;5048616;28;20532;-76
2023/11/02 01:52:16;;;;;;;13.45;10.38;;;9.30;99.90;;;;;;5009429;28;20128;-76
2023/11/02 01:55:09;;;;;;;9.77;9.27;;;9.30;99.90;;;;;;5006725;28;20041;-76
2023/11/02 01:57:53;;;;;;;10.10;9.40;;;9.30;99.90;;;;;;5030633;28;20903;-76
2023/11/02 02:00:26;;;;;;;10.48;9.98;;;9.40;99.90;;;;;;5049348;28;20703;-76
2023/11/02 02:03:26;;;;;;;10.75;10.15;;;9.40;99.90;;;;;;5015175;28;20048;-76
2023/11/02 02:06:13;;;;;;;11.70;10.50;;;9.40;99.90;;;;;;5033203;28;20057;-76
2023/11/02 02:08:55;;;;;;;10.77;10.10;;;9.50;99.90;;;;;;5031693;28;20068;-77
2023/11/02 02:11:34;;;;;;;11.32;10.50;;;9.60;99.90;;;;;;5030684;28;20061;-76
2023/11/02 02:14:25;;;;;;;12.15;11.05;;;9.70;99.90;;;;;;5051723;28;20045;-76
2023/11/02 02:16:59;;;;;;;11.48;10.88;;;9.70;99.90;;;;;;5031519;28;20120;-76
2023/11/02 02:19:50;;;;;;;12.18;11.05;;;9.70;99.90;;;;;;5032234;28;20625;-77
2023/11/02 02:22:24;;;;;;;11.73;10.95;;;9.80;99.90;;;;;;5028805;28;20072;-75
2023/11/02 02:25:12;;;;;;;11.73;10.93;;;9.80;99.90;;;;;;5014994;28;20060;-75
2023/11/02 02:28:07;;;;;;;11.80;11.10;;;9.80;99.90;;;;;;5009784;28;20048;-76
2023/11/02 02:30:43;;;;;;;11.57;10.95;;;9.80;99.90;;;;;;5049367;28;20041;-76
2023/11/02 02:33:19;;;;;;;11.43;10.63;;;9.90;99.90;;;;;;5037387;28;20045;-76
2023/11/02 02:36:18;;;;;;;11.80;10.93;;;9.90;99.90;;;;;;5028808;28;20041;-76
2023/11/02 02:38:57;;;;;;;12.38;11.57;;;9.90;99.90;;;;;;5026809;28;20369;-76
2023/11/02 02:41:29;;;;;;;13.90;12.70;;;9.90;99.90;;;;;;5028208;28;20049;-77
2023/11/02 02:43:58;;;;;;;13.98;13.05;;;10.00;99.90;;;;;;5029907;28;20049;-76
2023/11/02 02:46:28;;;;;;;13.60;12.90;;;10.10;99.90;;;;;;5020130;28;20040;-76
2023/11/02 02:48:54;;;;;;;14.60;13.40;;;10.10;99.90;;;;;;5026746;28;20083;-76
2023/11/02 02:51:23;;;;;;;14.23;13.18;;;10.00;99.90;;;;;;5034986;28;20041;-77
2023/11/02 02:53:54;;;;;;;14.98;13.82;;;10.00;99.90;;;;;;5028599;28;20045;-75
2023/11/02 02:56:25;;;;;;;13.48;12.77;;;9.90;99.90;;;;;;5016265;28;20066;-76
2023/11/02 02:59:00;;;;;;;13.52;12.73;;;9.90;99.90;;;;;;5032074;28;20045;-76
2023/11/02 03:01:40;;;;;;;13.77;12.77;;;9.90;99.90;;;;;;5010543;28;20130;-76
2023/11/02 03:04:13;;;;;;;13.93;12.90;;;9.90;99.90;;;;;;5035676;28;20061;-76
2023/11/02 03:07:10;;;;;;;13.68;12.73;;;9.80;99.90;;;;;;5009969;28;20570;-76
2023/11/02 03:09:40;;;;;;;13.70;12.70;;;9.80;99.90;;;;;;5017664;28;20044;-76
2023/11/02 03:12:09;;;;;;;14.00;12.95;;;9.80;99.90;;;;;;5031927;28;20044;-75
2023/11/02 03:14:41;;;;;;;13.40;12.70;;;9.80;99.90;;;;;;5027425;28;20112;-75
2023/11/02 03:17:49;;;;;;;13.13;12.18;;;9.80;99.90;;;;;;5028955;28;20234;-75
2023/11/02 03:20:17;;;;;;;12.43;11.43;;;9.80;99.90;;;;;;5007396;28;20172;-76
2023/11/02 03:22:44;;;;;;;13.40;12.23;;;9.80;99.90;;;;;;5036612;28;20041;-74
2023/11/02 03:25:18;;;;;;;12.27;11.48;;;9.70;99.90;;;;;;5033097;28;20117;-76
2023/11/02 03:28:11;;;;;;;12.85;11.85;;;9.70;99.90;;;;;;5027874;28;20041;-76
2023/11/02 03:30:47;;;;;;;13.38;12.02;;;9.80;99.90;;;;;;5023595;28;20107;-76
2023/11/02 03:33:19;;;;;;;12.18;11.13;;;9.80;99.90;;;;;;5029794;28;20033;-76
2023/11/02 03:36:04;;;;;;;12.60;11.57;;;9.80;99.90;;;;;;5029450;28;20061;-77
2023/11/02 03:38:57;;;;;;;12.70;11.63;;;9.80;99.90;;;;;;5034510;28;20075;-76
2023/11/02 03:41:29;;;;;;;12.30;11.18;;;9.90;99.90;;;;;;5027721;28;20568;-76
2023/11/02 03:44:18;;;;;;;12.95;11.88;;;9.90;99.90;;;;;;5026470;28;20052;-76
2023/11/02 03:47:11;;;;;;;12.40;11.70;;;9.80;99.90;;;;;;5025256;28;20046;-75
2023/11/02 03:50:05;;;;;;;12.45;11.50;;;9.80;99.90;;;;;;5028864;28;20041;-76
2023/11/02 03:52:41;;;;;;;11.90;11.30;;;9.80;99.90;;;;;;5047898;28;20037;-76
2023/11/02 03:55:36;;;;;;;12.50;11.52;;;9.90;99.90;;;;;;5030770;28;20049;-75
2023/11/02 03:58:39;;;;;;;12.87;11.70;;;9.90;99.90;;;;;;5032215;28;20049;-76
2023/11/02 04:01:27;;;;;;;12.88;11.70;;;9.90;99.90;;;;;;5018214;28;20705;-76
2023/11/02 04:04:03;;;;;;;12.65;11.95;;;9.90;99.90;;;;;;5028460;28;20045;-77
2023/11/02 04:07:00;;;;;;;12.40;11.60;;;9.80;99.90;;;;;;5028064;28;20669;-77
2023/11/02 04:09:37;;;;;;;12.50;11.60;;;9.70;99.90;;;;;;5031134;28;20056;-77
2023/11/02 04:12:21;;;;;;;12.63;11.60;;;9.70;99.90;;;;;;5033575;28;20043;-76
2023/11/02 04:14:51;;;;;;;11.55;10.75;;;9.60;99.90;;;;;;5031684;28;20041;-76
2023/11/02 04:17:19;;;;;;;11.88;10.68;;;9.60;99.90;;;;;;5035040;28;20049;-76
2023/11/02 04:19:45;;;;;;;10.73;10.13;;;9.60;99.90;;;;;;5030894;28;20072;-76
2023/11/02 04:22:13;;;;;;;11.13;10.23;;;9.60;99.90;;;;;;5030322;28;20055;-76
2023/11/02 04:24:42;;;;;;;10.85;10.00;;;9.60;99.90;;;;;;5036342;28;20115;-76
2023/11/02 04:27:09;;;;;;;11.40;10.50;;;9.60;99.90;;;;;;5024148;28;20551;-77
2023/11/02 04:29:36;;;;;;;11.00;10.13;;;9.60;99.90;;;;;;5035526;28;20538;-77
2023/11/02 04:32:03;;;;;;;11.20;10.48;;;9.60;99.90;;;;;;5036111;28;20717;-78
2023/11/02 04:34:30;;;;;;;11.35;10.48;;;9.60;99.90;;;;;;5032720;28;20065;-77
2023/11/02 04:36:58;;;;;;;11.70;10.65;;;9.60;99.90;;;;;;5038223;28;20065;-77
2023/11/02 04:39:24;;;;;;;11.85;10.80;;;9.60;99.90;;;;;;5032133;28;20048;-76
2023/11/02 04:41:51;;;;;;;12.07;10.98;;;9.60;99.90;;;;;;5038003;28;20048;-77
2023/11/02 04:44:18;;;;;;;11.65;10.65;;;9.70;99.90;;;;;;5024766;28;20049;-77
2023/11/02 04:46:45;;;;;;;10.98;10.27;;;9.60;99.90;;;;;;5017265;28;20052;-77
2023/11/02 04:49:13;;;;;;;11.45;10.85;;;9.70;99.90;;;;;;5033155;28;20040;-77
2023/11/02 04:51:53;;;;;;;11.80;11.10;;;9.60;99.90;;;;;;5019100;28;20037;-77
2023/11/02 04:54:24;;;;;;;12.52;11.20;;;9.70;99.90;;;;;;5032487;28;20040;-77
2023/11/02 04:56:51;;;;;;;12.05;11.30;;;9.70;99.90;;;;;;5031097;28;20144;-77
2023/11/02 04:59:19;;;;;;;11.57;10.98;;;9.70;99.90;;;;;;5018703;28;20115;-78
2023/11/02 05:01:47;;;;;;;11.57;10.55;;;9.70;99.90;;;;;;5030308;28;20045;-77
2023/11/02 05:04:14;;;;;;;11.75;10.90;;;9.70;99.90;;;;;;5034423;28;20057;-77
2023/11/02 05:06:42;;;;;;;12.05;11.07;;;9.60;99.90;;;;;;5058441;28;20115;-76
2023/11/02 05:09:10;;;;;;;11.90;10.90;;;9.60;99.90;;;;;;5059976;28;20103;-76
2023/11/02 05:11:37;;;;;;;12.10;11.40;;;9.60;99.90;;;;;;5045208;28;20049;-77
2023/11/02 05:14:04;;;;;;;12.18;11.40;;;9.70;99.90;;;;;;5035983;28;21381;-76
2023/11/02 05:16:30;;;;;;;12.55;11.55;;;9.70;99.90;;;;;;5021613;28;20045;-76
2023/11/02 05:18:57;;;;;;;13.32;12.40;;;9.70;99.90;;;;;;5034401;28;20060;-76
2023/11/02 05:21:24;;;;;;;13.00;12.18;;;9.60;99.90;;;;;;5030894;28;20195;-76
2023/11/02 05:23:51;;;;;;;13.13;12.32;;;9.60;99.90;;;;;;5029518;28;20041;-76
2023/11/02 05:26:18;;;;;;;13.15;12.25;;;9.60;99.90;;;;;;5038038;28;20172;-75
2023/11/02 05:28:45;;;;;;;13.60;12.77;;;9.70;99.90;;;;;;5050381;28;20109;-75
2023/11/02 05:31:12;;;;;;;13.35;12.55;;;9.60;99.90;;;;;;5050445;28;20048;-76
2023/11/02 05:33:39;;;;;;;13.55;12.73;;;9.60;99.90;;;;;;5061583;28;20075;-76
2023/11/02 05:36:07;;;;;;;14.40;13.35;;;9.60;99.90;;;;;;5027729;28;20049;-77
2023/11/02 05:38:33;;;;;;;14.35;13.43;;;9.60;99.90;;;;;;5039688;28;20562;-77
2023/11/02 05:41:00;;;;;;;13.80;13.10;;;9.60;99.90;;;;;;5028344;28;20473;-77
2023/11/02 05:43:27;;;;;;;14.23;13.20;;;9.60;99.90;;;;;;5032787;28;20061;-76
2023/11/02 05:45:54;;;;;;;15.00;13.77;;;9.70;99.90;;;;;;5017175;28;20041;-77
2023/11/02 05:48:21;;;;;;;14.80;13.93;;;9.70;99.90;;;;;;5042224;28;20048;-77
2023/11/02 05:50:48;;;;;;;14.57;13.77;;;9.80;99.90;;;;;;5030571;28;20707;-77
2023/11/02 05:53:15;;;;;;;16.05;14.80;;;9.70;99.90;;;;;;5021078;28;20047;-78
2023/11/02 05:55:42;;;;;;;16.08;14.73;;;9.80;99.90;;;;;;5018411;28;20033;-77
2023/11/02 05:58:09;;;;;;;15.20;14.50;;;9.80;99.90;;;;;;5031717;28;20068;-77
2023/11/02 06:00:37;;;;;;;17.10;15.65;;;9.80;99.90;;;;;;5036272;28;20052;-77
2023/11/02 06:03:04;;;;;;;16.10;15.30;;;9.80;99.90;;;;;;5048200;28;20044;-77
2023/11/02 06:05:31;;;;;;;16.52;15.48;;;9.80;99.90;;;;;;5027409;28;20138;-77
2023/11/02 06:07:57;;;;;;;16.25;15.00;;;9.80;99.90;;;;;;5030104;28;20048;-77
2023/11/02 06:10:24;;;;;;;16.05;15.07;;;9.80;99.90;;;;;;5030803;28;20514;-77
2023/11/02 06:12:51;;;;;;;16.73;15.52;;;9.80;99.90;;;;;;5028796;28;20048;-77
2023/11/02 06:15:18;;;;;;;16.70;15.70;;;9.80;99.90;;;;;;5030203;28;20495;-78
2023/11/02 06:17:44;;;;;;;16.50;15.60;;;9.80;99.90;;;;;;5036309;28;20045;-77
2023/11/02 06:20:11;;;;;;;17.40;16.30;;;9.80;99.90;;;;;;5030114;28;20069;-77
2023/11/02 06:22:39;;;;;;;15.50;14.70;;;9.80;99.90;;;;;;5031799;28;20045;-76
2023/11/02 06:25:08;;;;;;;16.20;15.20;;;9.80;99.90;;;;;;5027960;28;20053;-77
2023/11/02 06:27:34;;;;;;;16.25;15.38;;;9.80;99.90;;;;;;5013411;28;20538;-76
2023/11/02 06:30:01;;;;;;;16.25;15.38;;;9.80;99.90;;;;;;5025110;28;20041;-77
2023/11/02 06:32:28;;;;;;;16.08;15.35;;;9.80;99.90;;;;;;5024714;28;20043;-77
2023/11/02 06:34:55;;;;;;;16.27;15.48;;;9.90;99.90;;;;;;5014684;28;20049;-77
2023/11/02 06:37:21;;;;;;;16.52;15.63;;;9.90;99.90;;;;;;5010607;28;20052;-77
2023/11/02 06:39:48;;;;;;;15.95;15.15;;;9.90;99.90;;;;;;5032909;28;20057;-76
2023/11/02 06:42:15;;;;;;;18.92;17.30;;;9.90;99.90;;;;;;5025521;28;20048;-77
2023/11/02 06:44:45;;;;;;;16.35;15.18;;;9.90;99.90;;;;;;5028760;28;20075;-76
2023/11/02 06:47:12;;;;;;;18.75;17.55;;;9.90;99.90;;;;;;5023192;28;20061;-75
2023/11/02 06:49:39;;;;;;;17.02;15.93;;;10.00;99.90;;;;;;5030354;28;20041;-77
2023/11/02 06:52:06;;;;;;;17.58;16.48;;;10.00;99.90;;;;;;5028616;28;20033;-76
2023/11/02 06:54:33;;;;;;;18.20;17.00;;;10.00;99.90;;;;;;5022907;28;20128;-77
2023/11/02 06:57:01;;;;;;;17.40;16.35;;;10.00;99.90;;;;;;5024793;28;20037;-77
2023/11/02 06:59:28;;;;;;;17.60;16.27;;;10.00;99.90;;;;;;5028872;28;20053;-77
2023/11/02 07:01:57;;;;;;;17.70;16.50;;;10.00;99.90;;;;;;5024081;28;20045;-76
2023/11/02 07:04:25;;;;;;;18.00;16.67;;;10.10;99.90;;;;;;5026406;28;20049;-76
2023/11/02 07:06:51;;;;;;;17.35;15.90;;;10.10;99.90;;;;;;5028419;28;20140;-75
2023/11/02 07:09:18;;;;;;;16.92;16.00;;;10.10;99.90;;;;;;5025616;28;20523;-76
2023/11/02 07:11:45;;;;;;;17.25;16.30;;;10.10;99.90;;;;;;5027842;28;20037;-76
2023/11/02 07:14:12;;;;;;;15.95;15.15;;;10.10;99.90;;;;;;5024260;28;20110;-76
2023/11/02 07:16:39;;;;;;;16.40;15.50;;;10.20;99.90;;;;;;5029629;28;20044;-76
2023/11/02 07:19:06;;;;;;;16.95;16.05;;;10.20;99.90;;;;;;5013713;28;20095;-76
2023/11/02 07:21:33;;;;;;;16.55;15.60;;;10.20;99.90;;;;;;5019437;28;20046;-74
2023/11/02 07:24:02;;;;;;;16.00;15.20;;;10.20;99.90;;;;;;5027882;28;20119;-76
2023/11/02 07:26:29;;;;;;;16.23;15.18;;;10.30;99.90;;;;;;5025857;28;20141;-75
2023/11/02 07:28:57;;;;;;;16.48;15.38;;;10.30;99.90;;;;;;5026997;28;20072;-75
2023/11/02 07:31:24;;;;;;;17.50;16.40;;;10.30;99.90;;;;;;5014116;28;20037;-76
2023/11/02 07:33:50;;;;;;;19.83;18.33;;;10.40;99.90;;;;;;5027622;28;20063;-75
2023/11/02 07:36:18;;;;;;;19.70;18.60;;;10.40;99.90;;;;;;5022669;28;20029;-76
2023/11/02 07:38:52;;;;;;;19.17;18.17;;;10.40;99.90;;;;;;5027169;28;20072;-76
2023/11/02 07:41:20;;;;;;;19.02;18.13;;;10.40;99.90;;;;;;5026705;28;20045;-77
2023/11/02 07:43:47;;;;;;;18.90;17.75;;;10.40;99.90;;;;;;5031796;28;20401;-76
2023/11/02 07:46:14;;;;;;;16.90;16.02;;;10.40;99.90;;;;;;5030160;28;20641;-76
2023/11/02 07:48:41;;;;;;;16.85;16.02;;;10.40;99.90;;;;;;5035252;28;20048;-75
2023/11/02 07:51:08;;;;;;;16.95;16.02;;;10.40;99.90;;;;;;5029206;28;20044;-75
2023/11/02 07:53:34;;;;;;;16.98;16.08;;;10.40;99.90;;;;;;5032997;28;20144;-76
2023/11/02 07:56:01;;;;;;;18.83;17.77;;;10.40;99.90;;;;;;5031648;28;20098;-76
2023/11/02 07:58:28;;;;;;;17.67;16.88;;;10.40;99.90;;;;;;5036117;28;20057;-77
2023/11/02 08:00:55;;;;;;;17.77;16.88;;;10.40;99.90;;;;;;5028509;28;20041;-74
2023/11/02 08:03:22;;;;;;;18.25;17.10;;;10.50;99.90;;;;;;5029118;28;20045;-75
2023/11/02 08:05:49;;;;;;;18.38;17.58;;;10.60;99.90;;;;;;5029344;28;20044;-76
2023/11/02 08:08:15;;;;;;;18.15;17.25;;;10.60;99.90;;;;;;5031511;28;21468;-74
2023/11/02 08:10:42;;;;;;;18.55;17.52;;;10.60;99.90;;;;;;5029790;28;20527;-75
2023/11/02 08:13:09;;;;;;;17.27;16.38;;;10.70;99.90;;;;;;5028205;28;20164;-76
2023/11/02 08:15:36;;;;;;;16.67;15.75;;;10.70;99.90;;;;;;5015764;28;20047;-75
2023/11/02 08:18:03;;;;;;;16.40;15.40;;;10.70;99.90;;;;;;5032935;28;20052;-74
2023/11/02 08:20:30;;;;;;;16.13;15.15;;;10.70;99.90;;;;;;5033664;28;20813;-74
2023/11/02 08:22:57;;;;;;;17.83;16.83;;;10.70;99.90;;;;;;5030351;28;20111;-73
2023/11/02 08:25:24;;;;;;;17.50;16.70;;;10.70;99.90;;;;;;5029903;28;20057;-75
2023/11/02 08:27:57;;;;;;;17.83;16.50;;;10.70;99.90;;;;;;5031617;28;20148;-75
2023/11/02 08:30:27;;;;;;;17.50;16.52;;;10.70;99.90;;;;;;5027638;28;20045;-73
2023/11/02 08:32:55;;;;;;;17.33;16.42;;;10.70;99.90;;;;;;5013671;28;20158;-74
2023/11/02 08:35:22;;;;;;;16.17;15.48;;;10.70;99.90;;;;;;5010808;28;20056;-74
2023/11/02 08:37:49;;;;;;;17.38;16.58;;;10.80;99.90;;;;;;5032398;28;20057;-74
2023/11/02 08:40:20;;;;;;;17.45;16.55;;;10.80;99.90;;;;;;5024646;28;20369;-75
2023/11/02 08:42:49;;;;;;;18.30;17.30;;;10.80;99.90;;;;;;5031832;28;20350;-75
2023/11/02 08:45:17;;;;;;;18.77;17.67;;;10.80;99.90;;;;;;5015160;28;20623;-75
2023/11/02 08:47:44;;;;;;;16.98;16.25;;;10.90;99.90;;;;;;5027547;28;20192;-74
2023/11/02 08:50:12;;;;;;;15.13;14.43;;;10.90;99.90;;;;;;5010621;28;20443;-76
2023/11/02 08:52:40;;;;;;;15.20;14.45;;;10.80;99.90;;;;;;5028780;28;20530;-75
2023/11/02 08:55:08;;;;;;;15.05;14.35;;;10.90;99.90;;;;;;5027004;28;20041;-76
2023/11/02 08:57:35;;;;;;;15.35;14.40;;;10.90;99.90;;;;;;5028434;28;20573;-75
2023/11/02 09:00:05;;;;;;;17.70;16.70;;;10.90;99.90;;;;;;5032263;28;20044;-76
2023/11/02 09:02:32;;;;;;;18.40;16.83;;;10.90;99.90;;;;;;5012353;28;20053;-76
2023/11/02 09:04:59;;;;;;;20.75;19.85;;;10.90;99.90;;;;;;5033883;28;20733;-74
2023/11/02 09:07:28;;;;;;;18.70;17.27;;;10.90;99.90;;;;;;5034868;28;20045;-76
2023/11/02 09:09:55;;;;;;;17.45;16.65;;;10.90;99.90;;;;;;5031514;28;20572;-76
2023/11/02 09:12:22;;;;;;;17.95;17.02;;;10.80;99.90;;;;;;5026787;28;20042;-74
2023/11/02 09:14:49;;;;;;;17.48;16.65;;;10.80;99.90;;;;;;5032229;28;20068;-74
2023/11/02 09:17:16;;;;;;;17.40;16.40;;;10.80;99.90;;;;;;5025930;28;20037;-75
2023/11/02 09:19:43;;;;;;;17.63;16.58;;;10.70;99.90;;;;;;5028712;28;20430;-75
2023/11/02 09:22:10;;;;;;;18.35;17.17;;;10.70;99.90;;;;;;5030214;28;20053;-75
2023/11/02 09:24:58;;;;;;;17.40;16.60;;;10.70;99.90;;;;;;5029080;28;20057;-74
2023/11/02 09:27:26;;;;;;;18.95;17.65;;;10.60;99.90;;;;;;5033525;28;20046;-75
2023/11/02 09:29:53;;;;;;;18.38;17.00;;;10.60;99.90;;;;;;5033431;28;20473;-75
2023/11/02 09:32:20;;;;;;;18.10;17.10;;;10.60;99.90;;;;;;5031531;28;20033;-75
2023/11/02 09:34:47;;;;;;;17.27;16.48;;;10.70;99.90;;;;;;5019278;28;20069;-76
2023/11/02 09:37:14;;;;;;;17.10;16.20;;;10.70;99.90;;;;;;5016474;28;20492;-75
2023/11/02 09:39:40;;;;;;;17.15;16.33;;;10.70;99.90;;;;;;5011009;28;20680;-75
2023/11/02 09:42:07;;;;;;;17.98;16.95;;;10.70;99.90;;;;;;5052169;28;20059;-75
2023/11/02 09:44:34;;;;;;;17.67;16.77;;;10.70;99.90;;;;;;5060557;28;20044;-75
2023/11/02 09:47:02;;;;;;;17.08;16.27;;;10.70;99.90;;;;;;5047853;28;20037;-75
2023/11/02 09:49:29;;;;;;;16.48;15.73;;;10.60;99.90;;;;;;5033062;28;20053;-76
2023/11/02 09:51:57;;;;;;;16.60;15.80;;;10.60;99.90;;;;;;5031811;28;20033;-75
2023/11/02 09:54:24;;;;;;;17.13;16.23;;;10.60;99.90;;;;;;5031138;28;20056;-76
2023/11/02 09:57:08;;;;;;;17.80;16.60;;;10.70;99.90;;;;;;5015138;28;20804;-77
2023/11/02 09:59:39;;;;;;;16.60;15.80;;;10.60;99.90;;;;;;5034014;28;20055;-76
2023/11/02 10:02:07;;;;;;;16.08;15.38;;;10.70;99.90;;;;;;5034860;28;20041;-75
2023/11/02 10:04:34;;;;;;;16.88;16.08;;;10.60;99.90;;;;;;5031786;28;20053;-76
2023/11/02 10:07:01;;;;;;;16.77;15.88;;;10.70;99.90;;;;;;5030008;28;20040;-75
2023/11/02 10:09:28;;;;;;;17.20;16.23;;;10.70;99.90;;;;;;5027670;28;20048;-75
2023/11/02 10:11:55;;;;;;;18.02;16.80;;;10.70;99.90;;;;;;5026772;28;20041;-75
2023/11/02 10:14:22;;;;;;;17.20;16.40;;;10.80;99.90;;;;;;5025018;28;20209;-74
2023/11/02 10:16:49;;;;;;;17.77;16.92;;;10.80;99.90;;;;;;5031908;28;20049;-74
2023/11/02 10:19:16;;;;;;;17.80;16.70;;;10.80;99.90;;;;;;5028411;28;20049;-75
2023/11/02 10:21:44;;;;;;;17.38;16.33;;;10.80;99.90;;;;;;5027779;28;20081;-75
2023/11/02 10:24:11;;;;;;;17.50;16.50;;;10.90;99.90;;;;;;5031866;28;20481;-73
2023/11/02 10:26:38;;;;;;;17.50;16.55;;;11.00;99.90;;;;;;5030732;28;20124;-76
2023/11/02 10:29:05;;;;;;;17.70;16.77;;;11.00;99.90;;;;;;5029058;28;20048;-74
2023/11/02 10:31:33;;;;;;;18.35;17.17;;;11.10;99.90;;;;;;5010435;28;20123;-76
2023/11/02 10:34:01;;;;;;;18.20;17.23;;;11.20;99.90;;;;;;5019050;28;20040;-76
2023/11/02 10:36:32;;;;;;;18.10;17.20;;;11.20;99.90;;;;;;5007967;28;20038;-75
2023/11/02 10:38:59;;;;;;;18.75;17.85;;;11.30;99.90;;;;;;5034507;28;20049;-74
2023/11/02 10:41:27;;;;;;;19.55;18.55;;;11.30;99.90;;;;;;5019162;28;20874;-75
2023/11/02 10:43:56;;;;;;;18.55;17.55;;;11.30;99.90;;;;;;5029717;28;20044;-76
2023/11/02 10:46:27;;;;;;;18.58;17.58;;;11.30;99.90;;;;;;5007935;28;20114;-76
2023/11/02 10:48:59;;;;;;;20.17;18.67;;;11.30;99.90;;;;;;5028243;28;20491;-75
2023/11/02 10:51:29;;;;;;;18.25;17.35;;;11.40;99.90;;;;;;5010431;28;20045;-76
2023/11/02 10:54:19;;;;;;;19.60;18.27;;;11.40;99.90;;;;;;5032262;28;20049;-76
2023/11/02 10:57:04;;;;;;;19.30;18.30;;;11.50;99.90;;;;;;5027867;28;20107;-75
2023/11/02 10:59:33;;;;;;;18.98;17.98;;;11.60;99.90;;;;;;4993999;28;20052;-75
2023/11/02 11:02:01;;;;;;;18.58;17.35;;;11.60;99.90;;;;;;5030104;28;20115;-75
2023/11/02 11:04:32;;;;;;;18.67;17.65;;;11.60;99.90;;;;;;5027028;28;20063;-76
2023/11/02 11:07:00;;;;;;;19.10;18.02;;;11.70;99.90;;;;;;5027535;28;20045;-76
2023/11/02 11:09:28;;;;;;;18.75;17.58;;;11.70;99.90;;;;;;5022567;28;20752;-75
2023/11/02 11:12:00;;;;;;;18.55;17.55;;;11.70;99.90;;;;;;5027611;28;20111;-75
2023/11/02 11:14:29;;;;;;;18.25;17.42;;;11.80;99.90;;;;;;5025721;28;20048;-75
2023/11/02 11:16:57;;;;;;;18.65;17.70;;;11.90;99.90;;;;;;5027652;28;20413;-75
2023/11/02 11:19:32;;;;;;;18.30;17.40;;;11.90;99.90;;;;;;5010220;28;20053;-76
2023/11/02 11:22:04;;;;;;;18.65;17.67;;;12.00;99.90;;;;;;5030558;28;20059;-76
2023/11/02 11:24:32;;;;;;;18.58;17.60;;;12.00;99.90;;;;;;5026658;28;20049;-75
2023/11/02 11:27:02;;;;;;;18.17;17.13;;;12.10;99.90;;;;;;5027645;28;20049;-75
2023/11/02 11:29:39;;;;;;;19.05;18.02;;;12.10;99.90;;;;;;5012393;28;20489;-76
2023/11/02 11:32:25;;;;;;;18.90;17.80;;;12.10;99.90;;;;;;5030534;28;20435;-76
2023/11/02 11:34:55;;;;;;;18.92;18.02;;;12.20;99.90;;;;;;5027050;28;20596;-75
2023/11/02 11:40:25;;;;;;;18.10;17.23;;;12.20;99.90;;;;;;5021537;28;20041;-76
2023/11/02 11:42:52;;;;;;;18.30;17.30;;;12.20;99.90;;;;;;5015051;28;20151;-76
2023/11/02 11:46:01;;;;;;;18.98;17.98;;;12.20;99.90;;;;;;5026554;28;20131;-75
2023/11/02 11:48:31;;;;;;;18.65;17.75;;;12.20;99.90;;;;;;5021562;28;20052;-75
2023/11/02 11:50:58;;;;;;;18.25;17.35;;;12.20;99.90;;;;;;5009260;28;21644;-75
2023/11/02 11:53:26;;;;;;;18.10;17.20;;;12.20;99.90;;;;;;5004802;28;20055;-75
2023/11/02 11:55:55;;;;;;;17.88;16.98;;;12.30;99.90;;;;;;5027785;28;20125;-75
2023/11/02 11:58:37;;;;;;;19.20;18.10;;;12.30;99.90;;;;;;5027976;28;20053;-75
2023/11/02 12:01:04;;;;;;;18.42;17.52;;;12.20;99.90;;;;;;5046116;28;20670;-75
2023/11/02 12:03:34;;;;;;;18.33;17.13;;;12.20;99.90;;;;;;5026747;28;20033;-75
2023/11/02 12:06:02;;;;;;;18.80;17.83;;;12.30;99.90;;;;;;5026845;28;20041;-75
2023/11/02 12:08:31;;;;;;;18.75;17.85;;;12.30;99.90;;;;;;5026155;28;20423;-76
2023/11/02 12:11:00;;;;;;;19.25;18.25;;;12.30;99.90;;;;;;5027741;28;20742;-75
2023/11/02 12:13:27;;;;;;;18.00;17.10;;;12.30;99.90;;;;;;5011686;28;20049;-75
2023/11/02 12:16:01;;;;;;;19.05;17.95;;;12.30;99.90;;;;;;5025642;28;20041;-75
2023/11/02 12:18:33;;;;;;;18.55;17.55;;;12.30;99.90;;;;;;5026276;28;20047;-75
2023/11/02 12:21:07;;;;;;;18.92;17.92;;;12.40;99.90;;;;;;5013021;28;20041;-76
2023/11/02 12:23:34;;;;;;;18.75;17.75;;;12.30;99.90;;;;;;5024287;28;20422;-76
2023/11/02 12:26:04;;;;;;;17.95;17.05;;;12.30;99.90;;;;;;5029951;28;20044;-75
2023/11/02 12:28:41;;;;;;;18.55;17.35;;;12.30;99.90;;;;;;5028108;28;21048;-75
2023/11/02 12:31:13;;;;;;;17.83;16.92;;;12.40;99.90;;;;;;5031416;28;20063;-75
2023/11/02 12:33:40;;;;;;;18.48;17.48;;;12.40;99.90;;;;;;5032489;28;20065;-76
2023/11/02 12:36:08;;;;;;;18.58;17.67;;;12.40;99.90;;;;;;5035526;28;20041;-76
2023/11/02 12:38:37;;;;;;;18.73;17.60;;;12.30;99.90;;;;;;5032373;28;20046;-75
2023/11/02 12:41:05;;;;;;;19.27;17.92;;;12.30;99.90;;;;;;5034150;28;20070;-76
2023/11/02 12:43:39;;;;;;;18.88;17.88;;;12.30;99.90;;;;;;5029147;28;20044;-75
2023/11/02 12:46:10;;;;;;;18.85;17.80;;;12.20;99.90;;;;;;5018692;28;20041;-75
2023/11/02 12:48:40;;;;;;;18.65;17.65;;;12.30;99.90;;;;;;5029264;28;20906;-75
2023/11/02 12:51:16;;;;;;;19.48;18.27;;;12.30;99.90;;;;;;5029113;28;20128;-75
2023/11/02 12:53:44;;;;;;;18.73;17.70;;;12.20;99.90;;;;;;5032768;28;20045;-75
2023/11/02 12:56:17;;;;;;;18.73;17.52;;;12.20;99.90;;;;;;5032865;28;20098;-75
2023/11/02 12:58:44;;;;;;;18.17;17.17;;;12.10;99.90;;;;;;5029456;28;20120;-75